createdAt,value
2019-05-18T00:00:04.663Z,37.20
2019-05-18T00:02:58.973Z,37.30
2019-05-18T00:05:52.007Z,37.30
2019-05-18T00:08:45.367Z,37.30
2019-05-18T00:11:38.815Z,37.30
2019-05-18T00:14:31.854Z,37.30
2019-05-18T00:17:25.556Z,37.30
2019-05-18T00:20:18.602Z,37.30
2019-05-18T00:23:11.715Z,37.30
2019-05-18T00:26:04.825Z,37.30
2019-05-18T00:28:59.618Z,37.30
2019-05-18T00:31:54.208Z,37.40
2019-05-18T00:34:49.657Z,37.40
2019-05-18T00:37:43.706Z,37.40
2019-05-18T00:40:38.523Z,37.50
2019-05-18T00:43:32.527Z,37.50
2019-05-18T00:46:29.516Z,37.50
2019-05-18T00:49:23.731Z,37.60
2019-05-18T00:52:17.700Z,37.60
2019-05-18T00:55:11.941Z,37.70
2019-05-18T00:58:05.954Z,37.70
2019-05-18T01:00:59.951Z,37.80
2019-05-18T01:03:54.672Z,37.90
2019-05-18T01:06:50.746Z,37.90
2019-05-18T01:09:47.891Z,38.00
2019-05-18T01:12:45.312Z,38.10
2019-05-18T01:15:41.322Z,38.10
2019-05-18T01:18:38.681Z,38.20
2019-05-18T01:21:33.854Z,38.20
2019-05-18T01:24:29.601Z,38.20
2019-05-18T01:27:25.119Z,38.40
2019-05-18T01:30:21.004Z,38.40
2019-05-18T01:33:16.850Z,38.40
2019-05-18T01:36:17.345Z,38.50
2019-05-18T01:39:13.210Z,38.50
2019-05-18T01:42:11.407Z,38.50
2019-05-18T01:45:16.276Z,38.60
2019-05-18T01:48:13.189Z,38.60
2019-05-18T01:50:56.283Z,38.60
2019-05-18T01:53:50.634Z,38.70
2019-05-18T01:56:44.124Z,38.70
2019-05-18T01:59:38.445Z,38.70
2019-05-18T02:02:31.819Z,38.80
2019-05-18T02:05:25.959Z,38.80
2019-05-18T02:08:19.349Z,38.70
2019-05-18T02:11:13.371Z,38.80
2019-05-18T02:14:06.939Z,38.90
2019-05-18T02:17:01.402Z,38.90
2019-05-18T02:19:55.415Z,38.80
2019-05-18T02:22:49.566Z,38.70
2019-05-18T02:25:43.250Z,38.80
2019-05-18T02:28:37.512Z,38.70
2019-05-18T02:31:31.222Z,38.80
2019-05-18T02:34:27.691Z,38.70
2019-05-18T02:37:21.316Z,38.80
2019-05-18T02:40:17.699Z,38.70
2019-05-18T02:43:11.568Z,38.80
2019-05-18T02:46:06.137Z,38.70
2019-05-18T02:49:00.738Z,38.80
2019-05-18T02:51:55.912Z,38.60
2019-05-18T02:54:50.725Z,38.50
2019-05-18T02:57:43.959Z,38.70
2019-05-18T03:00:37.926Z,38.70
2019-05-18T03:03:31.921Z,38.60
2019-05-18T03:06:24.993Z,39.30
2019-05-18T03:09:18.730Z,38.50
2019-05-18T03:12:12.279Z,38.40
2019-05-18T03:15:05.743Z,38.10
2019-05-18T03:17:59.912Z,38.00
2019-05-18T03:20:53.647Z,37.70
2019-05-18T03:23:47.202Z,37.60
2019-05-18T03:26:41.277Z,37.50
2019-05-18T03:29:35.027Z,37.40
2019-05-18T03:32:30.266Z,37.10
2019-05-18T03:35:26.307Z,36.90
2019-05-18T03:38:21.352Z,36.80
2019-05-18T03:41:15.614Z,36.80
2019-05-18T03:44:11.655Z,36.80
2019-05-18T03:47:06.688Z,36.60
2019-05-18T03:50:00.448Z,36.50
2019-05-18T03:52:54.710Z,36.30
2019-05-18T03:55:48.480Z,36.20
2019-05-18T03:58:41.618Z,36.20
2019-05-18T04:01:35.553Z,36.20
2019-05-18T04:04:30.093Z,36.10
2019-05-18T04:07:23.819Z,35.10
2019-05-18T04:10:17.004Z,35.80
2019-05-18T04:13:10.916Z,35.60
2019-05-18T04:16:04.691Z,35.60
2019-05-18T04:18:57.732Z,35.50
2019-05-18T04:21:50.957Z,35.30
2019-05-18T04:24:44.199Z,34.90
2019-05-18T04:27:37.747Z,34.80
2019-05-18T04:30:31.166Z,34.40
2019-05-18T04:33:24.502Z,34.70
2019-05-18T04:36:19.556Z,34.90
2019-05-18T04:39:13.286Z,34.80
2019-05-18T04:42:07.272Z,34.60
2019-05-18T04:45:01.173Z,34.30
2019-05-18T04:47:56.080Z,34.60
2019-05-18T04:50:49.991Z,34.60
2019-05-18T04:53:43.795Z,34.50
2019-05-18T04:56:37.809Z,34.70
2019-05-18T04:59:31.969Z,34.60
2019-05-18T05:02:26.828Z,34.30
2019-05-18T05:05:21.376Z,34.40
2019-05-18T05:08:16.432Z,34.10
2019-05-18T05:11:10.711Z,34.40
2019-05-18T05:14:04.973Z,34.40
2019-05-18T05:16:59.354Z,34.30
2019-05-18T05:19:53.487Z,34.00
2019-05-18T05:22:49.147Z,34.10
2019-05-18T05:25:42.801Z,34.10
2019-05-18T05:28:39.258Z,33.80
2019-05-18T05:31:34.919Z,33.90
2019-05-18T05:34:29.207Z,33.90
2019-05-18T05:37:24.178Z,33.90
2019-05-18T05:40:18.740Z,33.80
2019-05-18T05:43:13.422Z,34.00
2019-05-18T05:46:07.667Z,34.00
2019-05-18T05:49:02.959Z,33.90
2019-05-18T05:51:58.773Z,33.90
2019-05-18T05:54:55.147Z,33.90
2019-05-18T05:57:50.094Z,34.00
2019-05-18T06:00:46.288Z,33.90
2019-05-18T06:03:40.835Z,33.80
2019-05-18T06:06:35.862Z,33.90
2019-05-18T06:09:31.823Z,33.80
2019-05-18T06:12:25.439Z,33.90
2019-05-18T06:15:21.247Z,33.80
2019-05-18T06:18:15.654Z,33.80
2019-05-18T06:21:10.743Z,33.80
2019-05-18T06:24:07.060Z,34.00
2019-05-18T06:27:02.665Z,33.70
2019-05-18T06:29:58.324Z,33.60
2019-05-18T06:32:53.458Z,33.40
2019-05-18T06:35:50.426Z,33.70
2019-05-18T06:38:45.747Z,33.80
2019-05-18T06:41:41.981Z,33.70
2019-05-18T06:44:37.219Z,33.60
2019-05-18T06:47:32.933Z,34.40
2019-05-18T06:50:32.118Z,33.80
2019-05-18T06:53:26.345Z,33.70
2019-05-18T06:56:21.165Z,33.70
2019-05-18T06:59:17.386Z,33.70
2019-05-18T07:02:12.349Z,33.70
2019-05-18T07:05:08.753Z,33.60
2019-05-18T07:08:04.351Z,33.70
2019-05-18T07:10:59.674Z,33.50
2019-05-18T07:13:54.391Z,33.50
2019-05-18T07:16:50.296Z,33.60
2019-05-18T07:19:45.368Z,33.70
2019-05-18T07:22:39.742Z,33.70
2019-05-18T07:25:35.689Z,33.70
2019-05-18T07:28:30.305Z,33.60
2019-05-18T07:31:25.251Z,33.50
2019-05-18T07:34:19.848Z,33.60
2019-05-18T07:37:17.153Z,33.50
2019-05-18T07:40:11.566Z,33.50
2019-05-18T07:43:06.122Z,33.20
2019-05-18T07:46:01.566Z,33.30
2019-05-18T07:48:57.941Z,34.20
2019-05-18T07:51:52.687Z,33.30
2019-05-18T07:54:48.433Z,33.40
2019-05-18T07:57:41.728Z,33.30
2019-05-18T08:00:35.230Z,33.20
2019-05-18T08:03:28.315Z,33.10
2019-05-18T08:06:22.996Z,33.30
2019-05-18T08:09:16.109Z,33.30
2019-05-18T08:12:10.058Z,33.50
2019-05-18T08:15:04.336Z,33.40
2019-05-18T08:17:57.861Z,33.40
2019-05-18T08:20:51.498Z,33.30
2019-05-18T08:23:45.507Z,33.30
2019-05-18T08:26:38.909Z,33.40
2019-05-18T08:29:33.334Z,33.40
2019-05-18T08:32:28.041Z,33.20
2019-05-18T08:35:21.031Z,33.20
2019-05-18T08:38:13.897Z,33.40
2019-05-18T08:41:06.621Z,33.40
2019-05-18T08:43:59.097Z,33.40
2019-05-18T08:46:52.016Z,33.40
2019-05-18T08:49:45.033Z,33.20
2019-05-18T08:52:37.920Z,33.10
2019-05-18T08:55:31.490Z,33.10
2019-05-18T08:58:23.776Z,33.20
2019-05-18T09:01:17.684Z,33.10
2019-05-18T09:04:12.371Z,33.10
2019-05-18T09:07:04.889Z,33.10
2019-05-18T09:09:58.527Z,33.10
2019-05-18T09:12:52.984Z,33.10
2019-05-18T09:15:49.235Z,33.10
2019-05-18T09:18:42.710Z,33.10
2019-05-18T09:21:35.490Z,33.20
2019-05-18T09:24:28.263Z,33.30
2019-05-18T09:27:22.210Z,33.20
2019-05-18T09:30:17.265Z,33.10
2019-05-18T09:33:10.200Z,33.00
2019-05-18T09:36:05.632Z,33.00
2019-05-18T09:39:01.059Z,32.90
2019-05-18T09:41:56.628Z,33.00
2019-05-18T09:44:50.178Z,33.00
2019-05-18T09:47:44.017Z,33.10
2019-05-18T09:50:38.604Z,33.10
2019-05-18T09:53:31.399Z,33.30
2019-05-18T09:56:25.298Z,32.80
2019-05-18T09:59:20.167Z,32.80
2019-05-18T10:02:14.797Z,32.70
2019-05-18T10:05:09.997Z,32.90
2019-05-18T10:08:03.413Z,32.80
2019-05-18T10:10:55.992Z,32.80
2019-05-18T10:13:50.347Z,32.60
2019-05-18T10:16:46.462Z,32.60
2019-05-18T10:19:41.870Z,32.60
2019-05-18T10:22:35.124Z,32.70
2019-05-18T10:25:29.005Z,32.70
2019-05-18T10:28:24.148Z,32.40
2019-05-18T10:31:17.323Z,32.40
2019-05-18T10:34:10.550Z,32.40
2019-05-18T10:37:03.843Z,32.40
2019-05-18T10:39:57.480Z,32.80
2019-05-18T10:42:50.816Z,32.30
2019-05-18T10:45:46.181Z,32.70
2019-05-18T10:48:41.508Z,32.40
2019-05-18T10:51:37.557Z,32.40
2019-05-18T10:54:34.876Z,32.50
2019-05-18T10:57:32.249Z,32.30
2019-05-18T11:00:26.346Z,32.20
2019-05-18T11:03:19.610Z,31.90
2019-05-18T11:06:12.882Z,32.10
2019-05-18T11:09:07.044Z,32.10
2019-05-18T11:12:01.574Z,32.10
2019-05-18T11:14:54.438Z,32.30
2019-05-18T11:17:48.113Z,32.30
2019-05-18T11:20:42.057Z,32.30
2019-05-18T11:23:43.094Z,32.30
2019-05-18T11:26:32.547Z,32.30
2019-05-18T11:29:27.450Z,32.30
2019-05-18T11:32:19.893Z,32.50
2019-05-18T11:35:15.180Z,32.30
2019-05-18T11:38:08.258Z,32.40
2019-05-18T11:41:02.649Z,32.30
2019-05-18T11:43:58.089Z,32.30
2019-05-18T11:46:53.577Z,32.30
2019-05-18T11:49:47.952Z,32.20
2019-05-18T11:52:42.079Z,32.30
2019-05-18T11:55:35.109Z,32.30
2019-05-18T11:58:28.028Z,32.50
2019-05-18T12:01:20.680Z,32.40
2019-05-18T12:04:13.769Z,32.50
2019-05-18T12:07:06.343Z,32.50
2019-05-18T12:09:59.488Z,32.50
2019-05-18T12:12:53.358Z,32.40
2019-05-18T12:15:48.317Z,32.40
2019-05-18T12:18:42.691Z,32.40
2019-05-18T12:21:36.900Z,32.30
2019-05-18T12:24:30.598Z,32.30
2019-05-18T12:27:25.833Z,32.40
2019-05-18T12:30:21.074Z,32.00
2019-05-18T12:33:14.248Z,31.80
2019-05-18T12:36:08.253Z,31.80
2019-05-18T12:39:01.058Z,31.80
2019-05-18T12:41:55.416Z,31.80
2019-05-18T12:44:48.397Z,31.80
2019-05-18T12:47:41.179Z,31.80
2019-05-18T12:50:34.583Z,32.00
2019-05-18T12:53:28.625Z,31.90
2019-05-18T12:56:21.745Z,32.10
2019-05-18T12:59:16.977Z,31.80
2019-05-18T13:02:11.674Z,31.80
2019-05-18T13:05:08.983Z,31.90
2019-05-18T13:08:04.727Z,32.10
2019-05-18T13:10:57.652Z,32.00
2019-05-18T13:13:51.042Z,32.10
2019-05-18T13:16:45.206Z,31.70
2019-05-18T13:19:40.486Z,32.10
2019-05-18T13:22:34.680Z,32.00
2019-05-18T13:25:31.867Z,32.20
2019-05-18T13:28:26.061Z,32.20
2019-05-18T13:31:19.714Z,32.20
2019-05-18T13:34:17.064Z,32.20
2019-05-18T13:37:12.794Z,32.10
2019-05-18T13:40:07.335Z,32.20
2019-05-18T13:43:02.639Z,32.10
2019-05-18T13:45:58.793Z,33.00
2019-05-18T13:48:54.404Z,32.40
2019-05-18T13:51:50.814Z,32.30
2019-05-18T13:55:02.278Z,32.40
2019-05-18T13:57:42.499Z,32.40
2019-05-18T14:00:38.726Z,32.50
2019-05-18T14:03:35.250Z,32.40
2019-05-18T14:06:31.084Z,32.60
2019-05-18T14:09:25.935Z,32.50
2019-05-18T14:12:18.983Z,32.60
2019-05-18T14:15:15.294Z,32.60
2019-05-18T14:18:11.692Z,32.70
2019-05-18T14:21:05.985Z,32.80
2019-05-18T14:23:59.996Z,32.80
2019-05-18T14:26:54.212Z,33.00
2019-05-18T14:29:47.816Z,33.00
2019-05-18T14:32:43.052Z,33.10
2019-05-18T14:35:37.342Z,33.10
2019-05-18T14:38:32.167Z,33.20
2019-05-18T14:41:27.866Z,33.30
2019-05-18T14:44:22.297Z,33.10
2019-05-18T14:47:17.633Z,33.20
2019-05-18T14:50:13.915Z,33.20
2019-05-18T14:53:07.816Z,33.30
2019-05-18T14:56:04.050Z,33.30
2019-05-18T14:59:00.383Z,33.40
2019-05-18T15:01:57.253Z,33.50
2019-05-18T15:04:55.094Z,33.60
2019-05-18T15:07:49.416Z,33.60
2019-05-18T15:10:42.868Z,33.60
2019-05-18T15:13:37.676Z,33.70
2019-05-18T15:16:35.676Z,33.60
2019-05-18T15:19:30.216Z,33.60
2019-05-18T15:22:26.214Z,33.70
2019-05-18T15:25:22.696Z,33.70
2019-05-18T15:28:16.868Z,33.80
2019-05-18T15:31:10.905Z,33.90
2019-05-18T15:34:04.786Z,34.00
2019-05-18T15:36:58.533Z,34.00
2019-05-18T15:39:52.713Z,34.00
2019-05-18T15:42:47.635Z,34.10
2019-05-18T15:45:40.996Z,34.10
2019-05-18T15:48:33.841Z,34.20
2019-05-18T15:51:28.746Z,34.20
2019-05-18T15:54:22.871Z,34.30
2019-05-18T15:57:15.885Z,34.30
2019-05-18T16:00:11.098Z,34.40
2019-05-18T16:03:04.524Z,34.40
2019-05-18T16:05:57.802Z,34.40
2019-05-18T16:08:50.997Z,34.50
2019-05-18T16:11:44.160Z,34.50
2019-05-18T16:14:37.178Z,34.50
2019-05-18T16:17:38.862Z,35.30
2019-05-18T16:20:25.621Z,34.60
2019-05-18T16:23:22.000Z,35.30
2019-05-18T16:26:21.576Z,34.70
2019-05-18T16:29:09.243Z,34.70
2019-05-18T16:32:02.611Z,34.70
2019-05-18T16:34:55.554Z,34.70
2019-05-18T16:37:48.688Z,34.70
2019-05-18T16:40:41.692Z,34.80
2019-05-18T16:43:35.707Z,34.80
2019-05-18T16:46:30.693Z,34.90
2019-05-18T16:49:24.529Z,34.90
2019-05-18T16:52:17.872Z,34.90
2019-05-18T16:55:11.158Z,35.00
2019-05-18T16:58:05.660Z,35.00
2019-05-18T17:01:00.267Z,35.00
2019-05-18T17:03:53.692Z,35.00
2019-05-18T17:06:48.046Z,35.10
2019-05-18T17:09:42.806Z,35.00
2019-05-18T17:12:39.251Z,35.70
2019-05-18T17:15:35.252Z,35.10
2019-05-18T17:18:29.829Z,35.00
2019-05-18T17:21:24.581Z,35.00
2019-05-18T17:24:20.082Z,35.00
2019-05-18T17:27:13.986Z,35.00
2019-05-18T17:30:09.342Z,35.00
2019-05-18T17:33:02.842Z,34.90
2019-05-18T17:36:00.227Z,34.80
2019-05-18T17:38:51.528Z,34.80
2019-05-18T17:41:44.794Z,34.80
2019-05-18T17:44:38.663Z,34.80
2019-05-18T17:47:32.139Z,34.80
2019-05-18T17:50:25.522Z,34.80
2019-05-18T17:53:19.823Z,34.70
2019-05-18T17:56:13.471Z,34.70
2019-05-18T17:59:11.666Z,34.50
2019-05-18T18:02:06.183Z,34.60
2019-05-18T18:05:02.441Z,34.60
2019-05-18T18:07:55.959Z,34.50
2019-05-18T18:10:49.742Z,34.50
2019-05-18T18:13:44.624Z,34.40
2019-05-18T18:16:39.909Z,34.30
2019-05-18T18:19:35.223Z,34.30
2019-05-18T18:22:30.196Z,34.40
2019-05-18T18:25:24.661Z,34.40
2019-05-18T18:28:18.648Z,34.40
2019-05-18T18:31:14.137Z,34.30
2019-05-18T18:34:07.731Z,34.40
2019-05-18T18:37:02.150Z,34.40
2019-05-18T18:39:56.981Z,34.40
2019-05-18T18:42:50.786Z,34.40
2019-05-18T18:45:44.812Z,34.30
2019-05-18T18:48:38.728Z,34.40
2019-05-18T18:51:32.353Z,34.40
2019-05-18T18:54:25.935Z,34.30
2019-05-18T18:57:18.896Z,34.30
2019-05-18T19:00:12.539Z,34.30
2019-05-18T19:03:06.041Z,34.40
2019-05-18T19:06:01.384Z,34.30
2019-05-18T19:08:56.124Z,34.30
2019-05-18T19:11:49.995Z,34.30
2019-05-18T19:14:46.184Z,34.20
2019-05-18T19:17:40.867Z,34.30
2019-05-18T19:20:34.497Z,34.30
2019-05-18T19:23:29.322Z,34.30
2019-05-18T19:26:24.776Z,34.40
2019-05-18T19:29:19.956Z,34.30
2019-05-18T19:32:14.630Z,34.30
2019-05-18T19:35:07.529Z,34.30
2019-05-18T19:38:01.373Z,34.40
2019-05-18T19:40:55.251Z,34.30
2019-05-18T19:43:48.114Z,34.40
2019-05-18T19:46:41.100Z,34.40
2019-05-18T19:49:34.483Z,34.30
2019-05-18T19:52:28.841Z,34.40
2019-05-18T19:55:22.039Z,34.40
2019-05-18T19:58:15.396Z,34.40
2019-05-18T20:01:09.958Z,34.40
2019-05-18T20:04:03.012Z,34.40
2019-05-18T20:06:56.556Z,34.40
2019-05-18T20:09:52.855Z,34.40
2019-05-18T20:12:46.395Z,34.40
2019-05-18T20:15:42.692Z,34.20
2019-05-18T20:18:38.983Z,34.20
2019-05-18T20:21:35.121Z,34.20
2019-05-18T20:24:31.897Z,34.10
2019-05-18T20:27:26.511Z,34.10
2019-05-18T20:30:21.352Z,34.10
2019-05-18T20:33:16.414Z,34.10
2019-05-18T20:36:11.056Z,34.00
2019-05-18T20:39:05.417Z,33.90
2019-05-18T20:41:59.587Z,33.90
2019-05-18T20:44:52.593Z,33.90
2019-05-18T20:47:46.329Z,34.00
2019-05-18T20:50:39.471Z,34.00
2019-05-18T20:53:32.683Z,34.10
2019-05-18T20:56:25.515Z,34.10
2019-05-18T20:59:18.550Z,34.10
2019-05-18T21:02:10.907Z,34.10
2019-05-18T21:05:03.793Z,34.20
2019-05-18T21:07:58.788Z,33.60
2019-05-18T21:10:52.536Z,33.90
2019-05-18T21:13:44.959Z,33.90
2019-05-18T21:16:38.225Z,34.00
2019-05-18T21:19:31.225Z,33.90
2019-05-18T21:22:24.515Z,34.00
2019-05-18T21:25:17.168Z,34.00
2019-05-18T21:28:09.946Z,34.00
2019-05-18T21:31:06.166Z,34.00
2019-05-18T21:33:59.813Z,34.10
2019-05-18T21:36:54.333Z,34.00
2019-05-18T21:39:47.409Z,34.10
2019-05-18T21:42:40.029Z,33.90
2019-05-18T21:45:33.667Z,33.90
2019-05-18T21:48:27.663Z,33.90
2019-05-18T21:51:22.458Z,33.90
2019-05-18T21:54:16.276Z,33.90
2019-05-18T21:57:10.087Z,33.90
2019-05-18T22:00:03.989Z,33.80
2019-05-18T22:02:59.353Z,33.80
2019-05-18T22:05:53.550Z,33.90
2019-05-18T22:08:47.146Z,33.90
2019-05-18T22:11:42.363Z,33.90
2019-05-18T22:14:36.261Z,33.80
2019-05-18T22:17:30.452Z,33.80
2019-05-18T22:20:25.473Z,33.80
2019-05-18T22:23:20.339Z,33.80
2019-05-18T22:26:14.509Z,33.90
2019-05-18T22:29:08.498Z,33.90
2019-05-18T22:32:02.236Z,33.80
2019-05-18T22:34:56.025Z,33.80
2019-05-18T22:37:50.330Z,33.70
2019-05-18T22:40:46.054Z,33.60
2019-05-18T22:43:40.565Z,33.70
2019-05-18T22:46:34.679Z,33.70
2019-05-18T22:49:29.424Z,33.70
2019-05-18T22:52:22.835Z,33.70
2019-05-18T22:55:16.104Z,33.60
2019-05-18T22:58:10.130Z,33.50
2019-05-18T23:01:04.837Z,33.60
2019-05-18T23:03:59.723Z,33.60
2019-05-18T23:06:54.055Z,33.60
2019-05-18T23:09:49.046Z,33.60
2019-05-18T23:12:43.580Z,33.70
2019-05-18T23:15:37.787Z,33.50
2019-05-18T23:18:31.733Z,33.60
2019-05-18T23:21:25.985Z,33.60
2019-05-18T23:24:20.124Z,33.70
2019-05-18T23:27:14.932Z,33.60
2019-05-18T23:30:08.191Z,33.70
2019-05-18T23:33:03.822Z,33.70
2019-05-18T23:35:57.159Z,33.60
2019-05-18T23:38:50.331Z,33.70
2019-05-18T23:41:45.011Z,34.30
2019-05-18T23:44:39.463Z,33.70
2019-05-18T23:47:34.955Z,33.80
2019-05-18T23:50:29.257Z,33.80
2019-05-18T23:53:24.221Z,33.70
2019-05-18T23:56:18.798Z,33.80
2019-05-18T23:59:14.527Z,33.70
